createdAt,value
2017-08-27T00:01:39.031Z,27.73
2017-08-27T00:04:06.439Z,30.13
2017-08-27T00:06:33.850Z,29.13
2017-08-27T00:09:01.254Z,28.03
2017-08-27T00:11:28.670Z,27.43
2017-08-27T00:13:56.114Z,29.90
2017-08-27T00:16:23.510Z,29.60
2017-08-27T00:18:50.914Z,26.30
2017-08-27T00:21:18.359Z,27.40
2017-08-27T00:23:45.770Z,27.17
2017-08-27T00:26:13.171Z,29.47
2017-08-27T00:28:40.731Z,31.70
2017-08-27T00:31:08.131Z,30.53
2017-08-27T00:33:35.544Z,30.07
2017-08-27T00:36:03.348Z,27.90
2017-08-27T00:38:30.740Z,29.17
2017-08-27T00:40:58.139Z,28.40
2017-08-27T00:43:25.907Z,29.07
2017-08-27T00:45:53.306Z,31.20
2017-08-27T00:48:20.703Z,30.87
2017-08-27T00:50:48.264Z,31.87
2017-08-27T00:53:15.660Z,31.80
2017-08-27T00:55:43.054Z,28.47
2017-08-27T00:58:10.494Z,29.07
2017-08-27T01:00:37.907Z,29.83
2017-08-27T01:03:05.306Z,30.93
2017-08-27T01:05:32.867Z,31.37
2017-08-27T01:08:00.267Z,31.93
2017-08-27T01:10:28.516Z,30.90
2017-08-27T01:12:55.958Z,34.23
2017-08-27T01:15:23.414Z,30.60
2017-08-27T01:17:50.812Z,32.23
2017-08-27T01:20:18.587Z,32.37
2017-08-27T01:22:45.989Z,29.23
2017-08-27T01:25:13.382Z,28.60
2017-08-27T01:27:40.826Z,30.30
2017-08-27T01:30:08.227Z,29.43
2017-08-27T01:32:35.634Z,28.40
2017-08-27T01:35:03.201Z,30.40
2017-08-27T01:37:30.598Z,31.63
2017-08-27T01:39:58.002Z,34.13
2017-08-27T01:42:25.411Z,30.50
2017-08-27T01:44:52.811Z,29.13
2017-08-27T01:47:20.214Z,33.47
2017-08-27T01:49:47.659Z,30.90
2017-08-27T01:52:15.083Z,29.07
2017-08-27T01:54:42.478Z,32.70
2017-08-27T01:57:10.242Z,33.27
2017-08-27T01:59:37.643Z,32.57
2017-08-27T02:02:05.052Z,32.37
2017-08-27T02:04:32.491Z,31.60
2017-08-27T02:06:59.894Z,35.43
2017-08-27T02:09:27.306Z,36.73
2017-08-27T02:11:54.735Z,34.20
2017-08-27T02:14:22.127Z,32.30
2017-08-27T02:16:49.528Z,34.50
2017-08-27T02:19:16.970Z,33.50
2017-08-27T02:21:44.374Z,29.90
2017-08-27T02:24:11.775Z,32.60
2017-08-27T02:26:39.298Z,33.77
2017-08-27T02:29:06.691Z,33.00
2017-08-27T02:31:34.087Z,29.90
2017-08-27T02:34:01.639Z,31.67
2017-08-27T02:36:29.039Z,29.77
2017-08-27T02:38:56.446Z,27.63
2017-08-27T02:41:23.959Z,31.90
2017-08-27T02:43:51.361Z,33.17
2017-08-27T02:46:18.765Z,28.87
2017-08-27T02:48:46.211Z,29.60
2017-08-27T02:51:13.611Z,29.30
2017-08-27T02:53:41.016Z,29.90
2017-08-27T02:56:08.484Z,27.93
2017-08-27T02:58:35.895Z,30.07
2017-08-27T03:01:04.199Z,28.50
2017-08-27T03:03:31.670Z,28.90
2017-08-27T03:05:59.067Z,32.60
2017-08-27T03:08:26.491Z,29.30
2017-08-27T03:10:53.947Z,30.07
2017-08-27T03:13:21.342Z,30.57
2017-08-27T03:15:48.747Z,31.63
2017-08-27T03:18:16.167Z,30.83
2017-08-27T03:20:43.578Z,34.33
2017-08-27T03:23:10.998Z,34.07
2017-08-27T03:25:38.553Z,29.60
2017-08-27T03:28:05.958Z,29.80
2017-08-27T03:30:33.360Z,33.63
2017-08-27T03:33:00.926Z,30.97
2017-08-27T03:35:28.327Z,31.10
2017-08-27T03:37:55.722Z,30.77
2017-08-27T03:40:23.227Z,29.13
2017-08-27T03:42:50.623Z,31.13
2017-08-27T03:45:18.019Z,31.63
2017-08-27T03:47:45.427Z,34.13
2017-08-27T03:50:12.826Z,35.00
2017-08-27T03:52:40.218Z,33.60
2017-08-27T03:55:07.662Z,32.70
2017-08-27T03:57:35.059Z,32.43
2017-08-27T04:00:02.458Z,31.37
2017-08-27T04:02:30.370Z,30.73
2017-08-27T04:04:57.774Z,30.13
2017-08-27T04:07:25.171Z,29.20
2017-08-27T04:09:52.610Z,34.10
2017-08-27T04:12:20.011Z,33.00
2017-08-27T04:14:47.402Z,30.87
2017-08-27T04:17:14.962Z,32.03
2017-08-27T04:19:42.371Z,31.50
2017-08-27T04:22:09.775Z,30.97
2017-08-27T04:24:37.284Z,31.87
2017-08-27T04:27:04.682Z,32.00
2017-08-27T04:29:32.079Z,30.47
2017-08-27T04:31:59.495Z,32.70
2017-08-27T04:34:26.915Z,30.73
2017-08-27T04:36:54.318Z,33.57
2017-08-27T04:39:21.868Z,29.80
2017-08-27T04:41:49.264Z,32.30
2017-08-27T04:44:16.659Z,30.90
2017-08-27T04:46:44.166Z,32.93
2017-08-27T04:49:11.565Z,32.83
2017-08-27T04:51:38.969Z,35.40
2017-08-27T04:54:06.395Z,31.60
2017-08-27T04:56:33.798Z,35.43
2017-08-27T04:59:01.194Z,31.13
2017-08-27T05:01:28.766Z,33.33
2017-08-27T05:03:56.164Z,30.00
2017-08-27T05:06:24.586Z,30.90
2017-08-27T05:08:53.001Z,33.80
2017-08-27T05:11:21.123Z,30.40
2017-08-27T05:13:48.551Z,28.60
2017-08-27T05:16:16.107Z,29.77
2017-08-27T05:18:43.503Z,30.73
2017-08-27T05:21:10.902Z,30.20
2017-08-27T05:23:38.667Z,32.17
2017-08-27T05:26:06.107Z,28.80
2017-08-27T05:28:33.506Z,29.40
2017-08-27T05:31:01.063Z,27.70
2017-08-27T05:33:28.485Z,26.60
2017-08-27T05:35:55.879Z,29.13
2017-08-27T05:38:23.311Z,29.03
2017-08-27T05:40:50.727Z,26.23
2017-08-27T05:43:18.137Z,26.10
2017-08-27T05:45:45.679Z,31.60
2017-08-27T05:48:13.093Z,30.13
2017-08-27T05:50:40.478Z,27.30
2017-08-27T05:53:08.038Z,29.67
2017-08-27T05:55:35.431Z,31.17
2017-08-27T05:58:02.846Z,27.30
2017-08-27T06:00:30.292Z,28.70
2017-08-27T06:02:57.694Z,28.47
2017-08-27T06:05:25.091Z,28.10
2017-08-27T06:07:52.644Z,28.27
2017-08-27T06:10:20.035Z,31.50
2017-08-27T06:12:47.432Z,32.30
2017-08-27T06:15:14.834Z,33.30
2017-08-27T06:17:42.231Z,32.67
2017-08-27T06:20:09.634Z,35.70
2017-08-27T06:22:37.186Z,38.20
2017-08-27T06:25:04.578Z,39.37
2017-08-27T06:27:31.987Z,37.10
2017-08-27T06:29:59.539Z,44.50
2017-08-27T06:32:26.944Z,43.80
2017-08-27T06:34:54.354Z,43.53
2017-08-27T06:37:21.778Z,41.73
2017-08-27T06:39:49.184Z,39.67
2017-08-27T06:42:16.579Z,45.80
2017-08-27T06:44:44.145Z,44.47
2017-08-27T06:47:11.544Z,47.27
2017-08-27T06:49:38.954Z,48.20
2017-08-27T06:52:06.466Z,53.40
2017-08-27T06:54:33.862Z,54.83
2017-08-27T06:57:01.263Z,54.50
2017-08-27T06:59:28.694Z,50.63
2017-08-27T07:01:56.099Z,57.40
2017-08-27T07:04:23.497Z,52.00
2017-08-27T07:06:50.934Z,53.03
2017-08-27T07:09:18.339Z,52.10
2017-08-27T07:11:45.754Z,51.63
2017-08-27T07:14:13.683Z,55.90
2017-08-27T07:16:41.088Z,55.20
2017-08-27T07:19:08.506Z,55.83
2017-08-27T07:21:36.063Z,56.93
2017-08-27T07:24:03.472Z,55.37
2017-08-27T07:26:30.866Z,53.33
2017-08-27T07:28:58.311Z,41.67
2017-08-27T07:31:25.706Z,44.67
2017-08-27T07:33:53.105Z,41.30
2017-08-27T07:36:20.650Z,49.57
2017-08-27T07:38:48.047Z,40.77
2017-08-27T07:41:15.443Z,47.80
2017-08-27T07:43:42.864Z,46.20
2017-08-27T07:46:10.258Z,47.73
2017-08-27T07:48:37.655Z,45.57
2017-08-27T07:51:05.204Z,49.40
2017-08-27T07:53:32.598Z,51.70
2017-08-27T07:55:59.994Z,50.80
2017-08-27T07:58:27.414Z,51.97
2017-08-27T08:00:54.810Z,49.80
2017-08-27T08:03:22.212Z,49.63
2017-08-27T08:05:49.724Z,54.90
2017-08-27T08:08:17.114Z,51.23
2017-08-27T08:10:44.516Z,51.23
2017-08-27T08:13:12.364Z,48.67
2017-08-27T08:15:39.760Z,47.67
2017-08-27T08:18:07.155Z,46.60
2017-08-27T08:20:34.662Z,51.23
2017-08-27T08:23:03.070Z,49.00
2017-08-27T08:25:30.467Z,48.00
2017-08-27T08:27:58.051Z,45.63
2017-08-27T08:30:25.446Z,41.50
2017-08-27T08:32:52.851Z,46.97
2017-08-27T08:35:20.599Z,46.53
2017-08-27T08:37:47.991Z,44.70
2017-08-27T08:40:15.390Z,41.57
2017-08-27T08:42:42.814Z,45.60
2017-08-27T08:45:10.227Z,43.77
2017-08-27T08:47:37.627Z,44.17
2017-08-27T08:50:05.171Z,39.57
2017-08-27T08:52:32.574Z,41.50
2017-08-27T08:54:59.976Z,36.43
2017-08-27T08:57:27.414Z,37.23
2017-08-27T08:59:54.807Z,39.50
2017-08-27T09:02:22.202Z,37.80
2017-08-27T09:04:49.616Z,35.20
2017-08-27T09:07:17.010Z,33.43
2017-08-27T09:09:44.614Z,32.17
2017-08-27T09:12:12.159Z,29.97
2017-08-27T09:14:39.579Z,31.07
2017-08-27T09:17:06.975Z,31.83
2017-08-27T09:19:34.730Z,29.77
2017-08-27T09:22:02.127Z,31.37
2017-08-27T09:24:29.523Z,27.30
2017-08-27T09:26:56.943Z,27.43
2017-08-27T09:29:24.334Z,26.37
2017-08-27T09:31:51.730Z,27.73
2017-08-27T09:34:19.174Z,27.93
2017-08-27T09:36:46.570Z,27.30
2017-08-27T09:39:13.966Z,26.10
2017-08-27T09:41:41.555Z,27.43
2017-08-27T09:44:08.955Z,25.93
2017-08-27T09:46:36.354Z,26.07
2017-08-27T09:49:04.595Z,28.00
2017-08-27T09:51:31.982Z,24.63
2017-08-27T09:53:59.411Z,24.87
2017-08-27T09:56:26.958Z,20.97
2017-08-27T09:58:54.356Z,23.67
2017-08-27T10:01:21.751Z,25.30
2017-08-27T10:03:49.267Z,24.60
2017-08-27T10:06:16.658Z,21.77
2017-08-27T10:08:44.067Z,23.40
2017-08-27T10:11:11.507Z,25.40
2017-08-27T10:13:38.982Z,20.73
2017-08-27T10:16:06.379Z,24.60
2017-08-27T10:18:33.807Z,22.83
2017-08-27T10:21:01.208Z,23.97
2017-08-27T10:23:28.617Z,23.40
2017-08-27T10:25:56.034Z,23.23
2017-08-27T10:28:23.435Z,23.60
2017-08-27T10:30:50.831Z,22.00
2017-08-27T10:33:18.256Z,20.50
2017-08-27T10:35:45.646Z,21.57
2017-08-27T10:38:13.048Z,22.30
2017-08-27T10:40:40.590Z,23.33
2017-08-27T10:43:08.756Z,20.90
2017-08-27T10:45:36.176Z,20.40
2017-08-27T10:48:03.927Z,22.67
2017-08-27T10:50:31.331Z,20.40
2017-08-27T10:52:58.718Z,21.27
2017-08-27T10:55:26.234Z,21.10
2017-08-27T10:57:53.635Z,20.13
2017-08-27T11:00:21.032Z,19.90
2017-08-27T11:02:48.437Z,21.00
2017-08-27T11:05:15.838Z,21.37
2017-08-27T11:07:43.238Z,19.40
2017-08-27T11:10:11.126Z,18.30
2017-08-27T11:12:38.527Z,17.77
2017-08-27T11:15:05.918Z,16.33
2017-08-27T11:17:33.712Z,17.20
2017-08-27T11:20:01.118Z,16.40
2017-08-27T11:22:28.519Z,16.33
2017-08-27T11:24:55.959Z,17.10
2017-08-27T11:27:23.390Z,17.70
2017-08-27T11:29:50.754Z,15.53
2017-08-27T11:32:18.302Z,17.17
2017-08-27T11:34:45.703Z,15.30
2017-08-27T11:37:13.103Z,15.93
2017-08-27T11:39:40.551Z,15.47
2017-08-27T11:42:07.955Z,16.10
2017-08-27T11:44:35.351Z,16.43
2017-08-27T11:47:02.903Z,15.30
2017-08-27T11:49:30.302Z,15.17
2017-08-27T11:51:57.690Z,16.60
2017-08-27T11:54:25.448Z,15.07
2017-08-27T11:56:52.847Z,15.30
2017-08-27T11:59:20.249Z,14.80
2017-08-27T12:01:47.698Z,15.97
2017-08-27T12:04:15.100Z,16.07
2017-08-27T12:06:42.495Z,14.30
2017-08-27T12:09:10.003Z,14.80
2017-08-27T12:11:37.400Z,15.90
2017-08-27T12:14:04.806Z,15.37
2017-08-27T12:16:32.692Z,16.70
2017-08-27T12:19:00.092Z,16.10
2017-08-27T12:21:27.486Z,16.30
2017-08-27T12:23:55.002Z,16.47
2017-08-27T12:26:22.408Z,14.40
2017-08-27T12:28:49.794Z,15.20
2017-08-27T12:31:17.935Z,13.90
2017-08-27T12:33:45.822Z,15.30
2017-08-27T12:36:13.214Z,15.97
2017-08-27T12:38:40.655Z,16.47
2017-08-27T12:41:08.058Z,14.80
2017-08-27T12:43:35.463Z,16.80
2017-08-27T12:46:03.590Z,14.00
2017-08-27T12:48:30.990Z,15.57
2017-08-27T12:50:59.098Z,14.10
2017-08-27T12:53:26.658Z,14.50
2017-08-27T12:55:54.436Z,14.40
2017-08-27T12:58:22.378Z,15.40
2017-08-27T13:00:50.671Z,15.70
2017-08-27T13:03:18.092Z,15.13
2017-08-27T13:05:45.483Z,15.23
2017-08-27T13:08:12.899Z,14.43
2017-08-27T13:10:40.290Z,13.77
2017-08-27T13:13:07.690Z,14.10
2017-08-27T13:15:35.134Z,14.80
2017-08-27T13:18:02.550Z,14.70
2017-08-27T13:20:29.950Z,14.40
2017-08-27T13:22:57.459Z,14.77
2017-08-27T13:25:24.854Z,15.00
2017-08-27T13:27:52.271Z,14.43
2017-08-27T13:30:19.679Z,14.30
2017-08-27T13:32:47.074Z,12.90
2017-08-27T13:35:14.471Z,13.33
2017-08-27T13:37:42.024Z,14.00
2017-08-27T13:40:09.423Z,13.73
2017-08-27T13:42:36.818Z,13.70
2017-08-27T13:45:04.655Z,13.40
2017-08-27T13:47:32.063Z,14.23
2017-08-27T13:49:59.464Z,13.40
2017-08-27T13:52:27.215Z,14.00
2017-08-27T13:54:54.619Z,12.10
2017-08-27T13:57:22.014Z,13.70
2017-08-27T13:59:49.576Z,11.97
2017-08-27T14:02:16.988Z,12.07
2017-08-27T14:04:44.386Z,13.70
2017-08-27T14:07:11.810Z,12.97
2017-08-27T14:09:39.211Z,13.53
2017-08-27T14:12:06.608Z,13.83
2017-08-27T14:14:34.546Z,13.43
2017-08-27T14:17:01.949Z,14.00
2017-08-27T14:19:29.364Z,13.60
2017-08-27T14:21:57.123Z,13.30
2017-08-27T14:24:24.519Z,15.53
2017-08-27T14:26:51.931Z,13.10
2017-08-27T14:29:19.350Z,13.37
2017-08-27T14:31:46.751Z,13.60
2017-08-27T14:34:14.146Z,13.27
2017-08-27T14:36:41.699Z,14.80
2017-08-27T14:39:09.101Z,12.50
2017-08-27T14:41:36.499Z,13.80
2017-08-27T14:44:04.003Z,13.87
2017-08-27T14:46:31.405Z,13.27
2017-08-27T14:48:58.795Z,15.70
2017-08-27T14:51:26.344Z,12.67
2017-08-27T14:53:53.763Z,14.47
2017-08-27T14:56:21.162Z,15.90
2017-08-27T14:58:48.581Z,14.33
2017-08-27T15:01:15.983Z,16.10
2017-08-27T15:03:43.390Z,13.63
2017-08-27T15:06:10.902Z,14.83
2017-08-27T15:08:38.303Z,12.43
2017-08-27T15:11:05.699Z,12.27
2017-08-27T15:13:33.514Z,12.80
2017-08-27T15:16:00.920Z,13.27
2017-08-27T15:18:28.322Z,12.40
2017-08-27T15:20:55.878Z,11.87
2017-08-27T15:23:23.279Z,10.90
2017-08-27T15:25:50.675Z,11.93
2017-08-27T15:28:18.227Z,12.57
2017-08-27T15:30:45.623Z,13.07
2017-08-27T15:33:13.024Z,12.63
2017-08-27T15:35:41.782Z,12.70
2017-08-27T15:38:09.178Z,13.10
2017-08-27T15:40:36.582Z,12.80
2017-08-27T15:43:04.122Z,11.67
2017-08-27T15:45:31.531Z,11.90
2017-08-27T15:47:58.922Z,12.90
2017-08-27T15:50:26.331Z,13.73
2017-08-27T15:52:53.731Z,13.60
2017-08-27T15:55:21.126Z,12.17
2017-08-27T15:57:48.577Z,11.93
2017-08-27T16:00:15.986Z,13.60
2017-08-27T16:02:43.442Z,12.30
2017-08-27T16:05:11.028Z,11.57
2017-08-27T16:07:38.419Z,12.70
2017-08-27T16:10:05.847Z,12.90
2017-08-27T16:12:33.314Z,10.80
2017-08-27T16:15:00.711Z,12.13
2017-08-27T16:17:28.118Z,11.20
2017-08-27T16:19:55.633Z,11.63
2017-08-27T16:22:23.035Z,11.20
2017-08-27T16:24:50.435Z,11.00
2017-08-27T16:27:17.992Z,11.40
2017-08-27T16:29:45.407Z,11.57
2017-08-27T16:32:12.874Z,11.67
2017-08-27T16:34:40.288Z,11.63
2017-08-27T16:37:07.698Z,11.73
2017-08-27T16:39:35.091Z,12.50
2017-08-27T16:42:02.945Z,12.03
2017-08-27T16:44:30.741Z,11.60
2017-08-27T16:47:10.131Z,12.70
2017-08-27T16:49:37.536Z,12.33
2017-08-27T16:52:04.936Z,11.70
2017-08-27T16:54:32.479Z,11.30
2017-08-27T16:56:59.883Z,11.80
2017-08-27T16:59:27.270Z,12.43
2017-08-27T17:01:54.819Z,12.30
2017-08-27T17:04:22.286Z,12.27
2017-08-27T17:06:49.683Z,12.10
2017-08-27T17:09:17.096Z,12.43
2017-08-27T17:11:44.491Z,12.70
2017-08-27T17:14:12.027Z,13.87
2017-08-27T17:16:39.476Z,12.07
2017-08-27T17:19:06.875Z,12.00
2017-08-27T17:21:34.271Z,12.07
2017-08-27T17:24:12.347Z,11.97
2017-08-27T17:26:39.772Z,12.80
2017-08-27T17:29:07.171Z,13.80
2017-08-27T17:31:34.870Z,12.80
2017-08-27T17:34:05.443Z,12.47
2017-08-27T17:36:32.876Z,12.50
2017-08-27T17:39:00.431Z,12.07
2017-08-27T17:41:27.841Z,12.60
2017-08-27T17:43:55.256Z,12.20
2017-08-27T17:46:22.812Z,11.90
2017-08-27T17:48:50.232Z,11.30
2017-08-27T17:51:17.649Z,11.17
2017-08-27T17:53:45.953Z,11.70
2017-08-27T17:56:14.227Z,12.70
2017-08-27T17:58:41.636Z,11.83
2017-08-27T18:01:09.434Z,11.13
2017-08-27T18:03:36.883Z,12.60
2017-08-27T18:06:04.300Z,12.97
2017-08-27T18:08:31.814Z,13.70
2017-08-27T18:10:59.224Z,13.40
2017-08-27T18:13:26.622Z,12.20
2017-08-27T18:15:54.177Z,11.77
2017-08-27T18:18:21.567Z,13.23
2017-08-27T18:20:48.964Z,13.77
2017-08-27T18:23:16.520Z,13.17
2017-08-27T18:25:43.914Z,11.47
2017-08-27T18:28:11.311Z,14.33
2017-08-27T18:30:38.864Z,12.77
2017-08-27T18:33:06.269Z,13.90
2017-08-27T18:35:34.095Z,12.17
2017-08-27T18:38:02.418Z,12.33
2017-08-27T18:40:29.821Z,13.40
2017-08-27T18:42:57.347Z,11.27
2017-08-27T18:45:24.895Z,12.80
2017-08-27T18:47:52.304Z,12.23
2017-08-27T18:50:19.717Z,12.17
2017-08-27T18:52:47.163Z,12.13
2017-08-27T18:55:14.559Z,11.80
2017-08-27T18:57:42.020Z,12.40
2017-08-27T19:00:09.439Z,12.20
2017-08-27T19:02:36.839Z,12.33
2017-08-27T19:05:04.243Z,11.90
2017-08-27T19:07:31.808Z,12.07
2017-08-27T19:09:59.227Z,11.93
2017-08-27T19:12:26.652Z,11.60
2017-08-27T19:14:54.078Z,11.47
2017-08-27T19:17:21.475Z,10.90
2017-08-27T19:19:48.875Z,10.93
2017-08-27T19:22:16.291Z,13.77
2017-08-27T19:24:43.714Z,11.80
2017-08-27T19:27:11.118Z,11.40
2017-08-27T19:29:38.670Z,12.00
2017-08-27T19:32:06.076Z,11.17
2017-08-27T19:34:33.470Z,12.27
2017-08-27T19:37:01.031Z,11.63
2017-08-27T19:39:28.428Z,11.67
2017-08-27T19:41:55.823Z,13.50
2017-08-27T19:44:23.246Z,11.67
2017-08-27T19:46:50.648Z,12.33
2017-08-27T19:49:18.039Z,10.97
2017-08-27T19:51:45.492Z,12.40
2017-08-27T19:54:12.887Z,11.50
2017-08-27T19:56:40.289Z,10.90
2017-08-27T19:59:07.717Z,11.57
2017-08-27T20:01:35.346Z,11.20
2017-08-27T20:04:02.750Z,10.47
2017-08-27T20:06:30.160Z,11.90
2017-08-27T20:08:57.558Z,11.77
2017-08-27T20:11:24.960Z,11.80
2017-08-27T20:13:52.385Z,12.00
2017-08-27T20:16:19.782Z,12.03
2017-08-27T20:18:47.178Z,11.17
2017-08-27T20:21:14.734Z,12.53
2017-08-27T20:23:42.127Z,11.07
2017-08-27T20:26:09.524Z,11.07
2017-08-27T20:28:37.074Z,11.57
2017-08-27T20:31:04.480Z,11.97
2017-08-27T20:33:31.874Z,11.63
2017-08-27T20:35:59.430Z,12.27
2017-08-27T20:38:26.826Z,11.10
2017-08-27T20:40:54.447Z,12.40
2017-08-27T20:43:21.999Z,11.60
2017-08-27T20:45:49.393Z,11.67
2017-08-27T20:48:16.786Z,11.53
2017-08-27T20:50:44.343Z,11.87
2017-08-27T20:53:11.754Z,12.20
2017-08-27T20:55:39.155Z,11.73
2017-08-27T20:58:06.716Z,12.30
2017-08-27T21:00:34.112Z,12.10
2017-08-27T21:03:01.499Z,12.63
2017-08-27T21:05:29.056Z,12.30
2017-08-27T21:07:56.451Z,11.50
2017-08-27T21:10:23.847Z,13.00
2017-08-27T21:12:51.400Z,12.13
2017-08-27T21:15:18.796Z,13.33
2017-08-27T21:17:46.188Z,13.83
2017-08-27T21:20:13.691Z,12.67
2017-08-27T21:22:41.091Z,12.77
2017-08-27T21:25:08.483Z,13.20
2017-08-27T21:27:36.034Z,13.53
2017-08-27T21:30:03.436Z,12.63
2017-08-27T21:32:30.830Z,12.17
2017-08-27T21:34:58.267Z,12.10
2017-08-27T21:37:25.662Z,13.53
2017-08-27T21:39:53.059Z,13.47
2017-08-27T21:42:20.567Z,11.80
2017-08-27T21:44:47.966Z,12.27
2017-08-27T21:47:15.358Z,13.00
2017-08-27T21:49:43.098Z,12.63
2017-08-27T21:52:10.493Z,12.53
2017-08-27T21:54:37.895Z,13.67
2017-08-27T21:57:05.322Z,12.50
2017-08-27T21:59:32.712Z,12.90
2017-08-27T22:02:00.114Z,13.30
2017-08-27T22:04:27.999Z,12.47
2017-08-27T22:06:55.396Z,12.97
2017-08-27T22:09:22.790Z,12.50
2017-08-27T22:11:50.343Z,12.80
2017-08-27T22:14:17.743Z,12.20
2017-08-27T22:16:45.135Z,11.93
2017-08-27T22:19:12.689Z,12.97
2017-08-27T22:21:40.087Z,11.87
2017-08-27T22:24:07.490Z,12.40
2017-08-27T22:26:35.048Z,12.57
2017-08-27T22:29:02.451Z,11.90
2017-08-27T22:31:29.854Z,12.90
2017-08-27T22:33:57.402Z,12.60
2017-08-27T22:36:24.803Z,13.17
2017-08-27T22:38:52.202Z,12.57
2017-08-27T22:41:19.754Z,12.23
2017-08-27T22:43:47.151Z,12.40
2017-08-27T22:46:14.547Z,13.10
2017-08-27T22:48:42.090Z,13.20
2017-08-27T22:51:09.504Z,13.30
2017-08-27T22:53:36.943Z,12.33
2017-08-27T22:56:04.352Z,12.53
2017-08-27T22:58:31.746Z,13.23
2017-08-27T23:00:59.146Z,13.17
2017-08-27T23:03:26.554Z,14.03
2017-08-27T23:05:53.946Z,13.03
2017-08-27T23:08:21.349Z,12.63
2017-08-27T23:10:48.898Z,12.60
2017-08-27T23:13:16.298Z,14.07
2017-08-27T23:15:43.691Z,13.20
2017-08-27T23:18:11.134Z,13.20
2017-08-27T23:20:38.539Z,13.60
2017-08-27T23:23:05.935Z,13.47
2017-08-27T23:25:33.491Z,13.10
2017-08-27T23:28:00.890Z,14.07
2017-08-27T23:30:28.299Z,13.70
2017-08-27T23:32:55.723Z,12.77
2017-08-27T23:35:23.127Z,13.60
2017-08-27T23:37:50.538Z,14.20
2017-08-27T23:40:17.994Z,13.20
2017-08-27T23:42:45.390Z,13.77
2017-08-27T23:45:12.783Z,12.80
2017-08-27T23:47:40.188Z,14.30
2017-08-27T23:50:07.587Z,12.63
2017-08-27T23:52:34.978Z,13.30
2017-08-27T23:55:03.390Z,13.63
2017-08-27T23:57:30.787Z,13.60
2017-08-27T23:59:58.183Z,12.53
